createdAt,value
2016-06-06T08:40:07.074Z,15
2016-06-06T08:40:19.683Z,15
2016-06-06T08:41:19.702Z,15
2016-06-06T08:42:19.861Z,15
2016-06-06T08:43:19.770Z,20
2016-06-06T08:44:20.335Z,20
2016-06-06T08:45:19.838Z,20
2016-06-06T08:46:19.715Z,20
2016-06-06T08:47:19.983Z,20
2016-06-06T08:48:20.018Z,20
2016-06-06T08:49:19.864Z,20
2016-06-06T08:50:20.038Z,20
2016-06-06T08:51:20.197Z,20
2016-06-06T08:52:20.138Z,20
2016-06-06T08:53:20.171Z,20
2016-06-06T08:54:20.112Z,20
2016-06-06T08:55:20.146Z,20
2016-06-06T08:56:20.023Z,20
2016-06-06T08:57:20.213Z,20
2016-06-06T08:58:20.309Z,20
2016-06-06T08:59:20.516Z,20
2016-06-06T09:00:20.331Z,20
2016-06-06T09:01:20.396Z,20
2016-06-06T09:02:20.368Z,20
2016-06-06T09:03:20.479Z,20
2016-06-06T09:04:20.420Z,20
2016-06-06T09:05:20.517Z,20
2016-06-06T09:06:20.472Z,20
2016-06-06T09:07:20.569Z,20
2016-06-06T09:08:20.617Z,20
2016-06-06T09:09:20.528Z,20
2016-06-06T09:10:20.608Z,20
2016-06-06T09:11:20.736Z,20
2016-06-06T09:12:20.661Z,20
2016-06-06T09:13:20.694Z,20
2016-06-06T09:14:21.088Z,20
2016-06-06T09:15:20.746Z,20
2016-06-06T09:16:20.952Z,20
2016-06-06T09:17:20.658Z,20
2016-06-06T09:18:20.864Z,20
2016-06-06T09:19:20.897Z,25
2016-06-06T09:20:21.072Z,20
2016-06-06T09:21:20.950Z,20
2016-06-06T09:22:20.968Z,20
2016-06-06T09:23:21.096Z,25
2016-06-06T09:24:21.161Z,25
2016-06-06T09:25:21.210Z,25
2016-06-06T09:26:21.104Z,25
2016-06-06T09:27:21.154Z,25
2016-06-06T09:28:21.251Z,25
2016-06-06T09:29:22.503Z,25
2016-06-06T09:30:21.256Z,25
2016-06-06T09:31:21.179Z,25
2016-06-06T09:32:21.354Z,25
2016-06-06T09:33:21.435Z,25
2016-06-06T09:34:21.485Z,25
2016-06-06T09:35:21.441Z,25
2016-06-06T09:36:21.459Z,25
2016-06-06T09:37:21.478Z,25
2016-06-06T09:38:21.605Z,25
2016-06-06T09:39:21.686Z,25
2016-06-06T09:40:21.579Z,25
2016-06-06T09:41:21.629Z,25
2016-06-06T09:42:21.631Z,25
2016-06-06T09:43:21.666Z,25
2016-06-06T09:44:21.714Z,25
2016-06-06T09:45:21.750Z,25
2016-06-06T09:46:21.845Z,25
2016-06-06T09:47:21.864Z,25
2016-06-06T09:48:21.819Z,30
2016-06-06T09:49:21.885Z,30
2016-06-06T09:50:21.887Z,30
2016-06-06T09:51:21.905Z,30
2016-06-06T09:52:22.080Z,30
2016-06-06T09:53:21.989Z,30
2016-06-06T09:54:22.242Z,30
2016-06-06T09:55:22.088Z,30
2016-06-06T09:56:22.154Z,30
2016-06-06T09:57:22.219Z,30
2016-06-06T09:58:22.159Z,30
2016-06-06T09:59:22.459Z,30
2016-06-06T10:00:22.274Z,35
2016-06-06T10:01:22.277Z,35
2016-06-06T10:02:22.326Z,30
2016-06-06T10:03:22.313Z,30
2016-06-06T10:04:22.378Z,30
2016-06-06T10:05:22.381Z,30
2016-06-06T10:06:22.431Z,30
2016-06-06T10:07:22.465Z,30
2016-06-06T10:08:22.389Z,30
2016-06-06T10:09:22.579Z,30
2016-06-06T10:10:22.550Z,30
2016-06-06T10:11:22.773Z,30
2016-06-06T10:12:22.462Z,35
2016-06-06T10:13:22.652Z,35
2016-06-06T10:14:22.546Z,35
2016-06-06T10:15:22.720Z,35
2016-06-06T10:16:22.770Z,35
2016-06-06T10:17:22.897Z,35
2016-06-06T10:18:22.838Z,35
2016-06-06T10:19:22.856Z,35
2016-06-06T10:20:22.906Z,35
2016-06-06T10:21:22.955Z,35
2016-06-06T10:22:22.896Z,25
2016-06-06T10:23:23.102Z,35
2016-06-06T10:24:23.088Z,35
2016-06-06T10:25:23.060Z,35
2016-06-06T10:26:23.094Z,40
2016-06-06T10:27:23.237Z,40
2016-06-06T10:28:23.176Z,40
2016-06-06T10:29:23.555Z,40
2016-06-06T10:30:23.229Z,35
2016-06-06T10:31:23.279Z,35
2016-06-06T10:32:23.312Z,35
2016-06-06T10:33:23.362Z,35
2016-06-06T10:34:23.396Z,40
2016-06-06T10:35:23.259Z,40
2016-06-06T10:36:23.448Z,40
2016-06-06T10:37:23.514Z,45
2016-06-06T10:38:23.375Z,40
2016-06-06T10:39:23.582Z,40
2016-06-06T10:40:23.600Z,40
2016-06-06T10:41:23.634Z,40
2016-06-06T10:42:23.699Z,50
2016-06-06T10:43:23.717Z,30
2016-06-06T10:44:23.767Z,45
2016-06-06T10:45:23.770Z,45
2016-06-06T10:46:23.819Z,40
2016-06-06T10:47:23.838Z,40
2016-06-06T10:48:23.872Z,35
2016-06-06T10:49:23.905Z,30
2016-06-06T10:50:23.939Z,55
2016-06-06T10:51:23.833Z,35
2016-06-06T10:52:24.023Z,45
2016-06-06T10:53:24.057Z,40
2016-06-06T10:54:23.950Z,20
2016-06-06T10:55:24.125Z,30
2016-06-06T10:56:24.158Z,25
2016-06-06T10:57:24.271Z,25
2016-06-06T10:58:24.226Z,40
2016-06-06T10:59:24.120Z,40
2016-06-06T11:00:24.169Z,40
2016-06-06T11:01:24.360Z,40
2016-06-06T11:02:24.221Z,40
2016-06-06T11:03:24.427Z,50
2016-06-06T11:04:24.446Z,40
2016-06-06T11:05:24.496Z,45
2016-06-06T11:06:24.515Z,40
2016-06-06T11:07:24.563Z,45
2016-06-06T11:08:24.597Z,45
2016-06-06T11:09:24.631Z,45
2016-06-06T11:10:24.681Z,45
2016-06-06T11:11:24.715Z,55
2016-06-06T11:12:24.733Z,55
2016-06-06T11:13:24.783Z,55
2016-06-06T11:14:26.411Z,55
2016-06-06T11:15:24.928Z,50
2016-06-06T11:16:24.884Z,55
2016-06-06T11:17:24.918Z,65
2016-06-06T11:18:24.968Z,70
2016-06-06T11:19:25.299Z,75
2016-06-06T11:20:25.036Z,65
2016-06-06T11:21:25.070Z,60
2016-06-06T11:22:25.103Z,65
2016-06-06T11:23:25.153Z,65
2016-06-06T11:24:25.172Z,55
2016-06-06T11:25:25.221Z,50
2016-06-06T11:26:25.286Z,50
2016-06-06T11:27:25.305Z,50
2016-06-06T11:28:25.338Z,50
2016-06-06T11:29:25.529Z,50
2016-06-06T11:30:25.625Z,50
2016-06-06T11:31:25.424Z,50
2016-06-06T11:32:25.474Z,55
2016-06-06T11:33:25.571Z,55
2016-06-06T11:34:25.932Z,55
2016-06-06T11:35:25.638Z,50
2016-06-06T11:36:25.626Z,50
2016-06-06T11:37:25.676Z,45
2016-06-06T11:38:25.709Z,55
2016-06-06T11:39:25.603Z,55
2016-06-06T11:40:25.792Z,55
2016-06-06T11:41:25.811Z,55
2016-06-06T11:42:25.845Z,55
2016-06-06T11:43:25.895Z,55
2016-06-06T11:44:25.819Z,30
2016-06-06T11:45:25.994Z,55
2016-06-06T11:46:26.090Z,55
2016-06-06T11:47:26.077Z,25
2016-06-06T11:48:26.064Z,30
2016-06-06T11:49:26.192Z,55
2016-06-06T11:50:26.148Z,60
2016-06-06T11:51:26.181Z,65
2016-06-06T11:52:26.341Z,60
2016-06-06T11:53:26.203Z,35
2016-06-06T11:54:26.408Z,50
2016-06-06T11:55:26.317Z,65
2016-06-06T11:56:26.367Z,75
2016-06-06T11:57:26.401Z,80
2016-06-06T11:58:26.450Z,60
2016-06-06T11:59:27.296Z,65
2016-06-06T12:00:25.925Z,80
2016-06-06T12:01:26.552Z,90
2016-06-06T12:02:26.601Z,90
2016-06-06T12:03:26.496Z,55
2016-06-06T12:04:26.717Z,50
2016-06-06T12:05:26.579Z,65
2016-06-06T12:06:26.768Z,70
2016-06-06T12:07:26.804Z,85
2016-06-06T12:08:26.837Z,85
2016-06-06T12:09:26.964Z,85
2016-06-06T12:10:26.937Z,85
2016-06-06T12:11:26.954Z,80
2016-06-06T12:12:27.004Z,85
2016-06-06T12:13:27.085Z,85
2016-06-06T12:14:27.134Z,90
2016-06-06T12:15:26.809Z,70
2016-06-06T12:16:27.156Z,60
2016-06-06T12:17:27.189Z,75
2016-06-06T12:18:27.254Z,75
2016-06-06T12:19:27.273Z,70
2016-06-06T12:20:27.150Z,70
2016-06-06T12:21:27.591Z,70
2016-06-06T12:22:27.375Z,65
2016-06-06T12:23:27.439Z,65
2016-06-06T12:24:27.458Z,65
2016-06-06T12:25:27.585Z,65
2016-06-06T12:26:27.479Z,65
2016-06-06T12:27:27.575Z,70
2016-06-06T12:28:27.609Z,70
2016-06-06T12:29:27.846Z,55
2016-06-06T12:30:28.677Z,70
2016-06-06T12:31:27.743Z,70
2016-06-06T12:32:27.871Z,70
2016-06-06T12:33:27.841Z,75
2016-06-06T12:34:27.843Z,85
2016-06-06T12:35:27.910Z,90
2016-06-06T12:36:27.927Z,85
2016-06-06T12:37:27.962Z,80
2016-06-06T12:38:28.057Z,80
2016-06-06T12:39:28.045Z,85
2016-06-06T12:40:28.079Z,90
2016-06-06T12:41:28.129Z,85
2016-06-06T12:42:28.256Z,35
2016-06-06T12:43:28.197Z,25
2016-06-06T12:44:28.778Z,30
2016-06-06T12:45:28.186Z,45
2016-06-06T12:46:28.329Z,90
2016-06-06T12:47:28.364Z,85
2016-06-06T12:48:28.398Z,85
2016-06-06T12:49:28.447Z,80
2016-06-06T12:50:28.637Z,80
2016-06-06T12:51:28.515Z,90
2016-06-06T12:52:28.549Z,90
2016-06-06T12:53:28.614Z,85
2016-06-06T12:54:28.648Z,35
2016-06-06T12:55:28.683Z,40
2016-06-06T12:56:28.716Z,40
2016-06-06T12:57:28.827Z,75
2016-06-06T12:58:28.799Z,75
2016-06-06T12:59:30.833Z,80
2016-06-06T13:00:29.367Z,95
2016-06-06T13:01:28.949Z,90
2016-06-06T13:02:28.951Z,95
2016-06-06T13:03:29.000Z,85
2016-06-06T13:04:29.096Z,40
2016-06-06T13:05:29.100Z,40
2016-06-06T13:06:28.977Z,70
2016-06-06T13:07:29.167Z,85
2016-06-06T13:08:29.202Z,90
2016-06-06T13:09:29.157Z,85
2016-06-06T13:10:29.285Z,85
2016-06-06T13:11:29.318Z,90
2016-06-06T13:12:29.368Z,100
2016-06-06T13:13:29.402Z,100
2016-06-06T13:14:30.093Z,100
2016-06-06T13:15:30.204Z,90
2016-06-06T13:16:29.535Z,80
2016-06-06T13:17:29.553Z,75
2016-06-06T13:18:29.603Z,70
2016-06-06T13:19:29.653Z,70
2016-06-06T13:20:29.687Z,75
2016-06-06T13:21:29.908Z,75
2016-06-06T13:22:29.755Z,90
2016-06-06T13:23:29.804Z,95
2016-06-06T13:24:29.697Z,90
2016-06-06T13:25:29.903Z,85
2016-06-06T13:26:29.922Z,65
2016-06-06T13:27:29.986Z,50
2016-06-06T13:28:30.036Z,35
2016-06-06T13:29:30.180Z,40
2016-06-06T13:30:30.385Z,40
2016-06-06T13:31:30.138Z,35
2016-06-06T13:32:30.172Z,25
2016-06-06T13:33:30.205Z,25
2016-06-06T13:34:30.255Z,25
2016-06-06T13:35:30.352Z,25
2016-06-06T13:36:30.324Z,25
2016-06-06T13:37:30.216Z,75
2016-06-06T13:38:30.423Z,70
2016-06-06T13:39:30.457Z,75
2016-06-06T13:40:30.490Z,75
2016-06-06T13:41:30.524Z,75
2016-06-06T13:42:30.573Z,75
2016-06-06T13:43:30.624Z,70
2016-06-06T13:44:31.455Z,80
2016-06-06T13:45:30.551Z,85
2016-06-06T13:46:30.803Z,85
2016-06-06T13:47:30.776Z,80
2016-06-06T13:48:30.825Z,30
2016-06-06T13:49:30.858Z,35
2016-06-06T13:50:30.845Z,40
2016-06-06T13:51:30.958Z,80
2016-06-06T13:52:30.976Z,75
2016-06-06T13:53:31.134Z,80
2016-06-06T13:54:31.059Z,75
2016-06-06T13:55:31.094Z,35
2016-06-06T13:56:31.142Z,70
2016-06-06T13:57:31.177Z,45
2016-06-06T13:58:31.226Z,80
2016-06-06T13:59:31.416Z,70
2016-06-06T14:00:31.888Z,85
2016-06-06T14:01:31.188Z,90
2016-06-06T14:02:31.394Z,70
2016-06-06T14:03:31.427Z,70
2016-06-06T14:04:31.461Z,65
2016-06-06T14:05:31.511Z,75
2016-06-06T14:06:31.545Z,35
2016-06-06T14:07:31.657Z,75
2016-06-06T14:08:31.472Z,75
2016-06-06T14:09:31.662Z,75
2016-06-06T14:10:31.790Z,75
2016-06-06T14:11:31.746Z,75
2016-06-06T14:12:31.811Z,75
2016-06-06T14:13:31.829Z,70
2016-06-06T14:14:32.348Z,70
2016-06-06T14:15:32.304Z,70
2016-06-06T14:16:31.979Z,70
2016-06-06T14:17:32.106Z,70
2016-06-06T14:18:32.155Z,70
2016-06-06T14:19:32.173Z,70
2016-06-06T14:20:32.114Z,70
2016-06-06T14:21:32.163Z,70
2016-06-06T14:22:32.275Z,70
2016-06-06T14:23:32.247Z,70
2016-06-06T14:24:32.281Z,70
2016-06-06T14:25:32.409Z,70
2016-06-06T14:26:32.458Z,80
2016-06-06T14:27:32.413Z,90
2016-06-06T14:28:32.479Z,90
2016-06-06T14:29:32.653Z,85
2016-06-06T14:30:32.827Z,80
2016-06-06T14:31:32.675Z,80
2016-06-06T14:32:32.614Z,85
2016-06-06T14:33:32.758Z,90
2016-06-06T14:34:32.682Z,95
2016-06-06T14:35:32.794Z,100
2016-06-06T14:36:32.782Z,85
2016-06-06T14:37:32.878Z,75
2016-06-06T14:38:32.959Z,70
2016-06-06T14:39:32.900Z,20
2016-06-06T14:40:32.949Z,35
2016-06-06T14:41:32.842Z,65
2016-06-06T14:42:33.016Z,70
2016-06-06T14:43:33.160Z,70
2016-06-06T14:44:33.913Z,70
2016-06-06T14:45:33.899Z,70
2016-06-06T14:46:33.199Z,70
2016-06-06T14:47:33.311Z,70
2016-06-06T14:48:33.283Z,70
2016-06-06T14:49:33.473Z,70
2016-06-06T14:50:33.366Z,70
2016-06-06T14:51:33.415Z,70
2016-06-06T14:52:33.465Z,70
2016-06-06T14:53:33.577Z,70
2016-06-06T14:54:33.377Z,70
2016-06-06T14:55:33.583Z,65
2016-06-06T14:56:33.617Z,65
2016-06-06T14:57:33.650Z,65
2016-06-06T14:58:33.701Z,65
2016-06-06T14:59:33.594Z,65
2016-06-06T15:00:34.659Z,65
2016-06-06T15:01:35.396Z,60
2016-06-06T15:02:33.930Z,60
2016-06-06T15:03:33.902Z,60
2016-06-06T15:04:33.935Z,60
2016-06-06T15:05:33.828Z,60
2016-06-06T15:06:34.035Z,60
2016-06-06T15:07:34.068Z,65
2016-06-06T15:08:34.197Z,65
2016-06-06T15:09:34.152Z,65
2016-06-06T15:10:34.185Z,60
2016-06-06T15:11:34.235Z,60
2016-06-06T15:12:34.301Z,60
2016-06-06T15:13:34.318Z,60
2016-06-06T15:14:34.571Z,60
2016-06-06T15:15:34.996Z,60
2016-06-06T15:16:34.389Z,60
2016-06-06T15:17:34.485Z,55
2016-06-06T15:18:34.395Z,55
2016-06-06T15:19:34.585Z,55
2016-06-06T15:20:34.619Z,55
2016-06-06T15:21:34.715Z,55
2016-06-06T15:22:34.687Z,55
2016-06-06T15:23:34.721Z,55
2016-06-06T15:24:34.630Z,55
2016-06-06T15:25:34.851Z,50
2016-06-06T15:26:34.853Z,50
2016-06-06T15:27:34.887Z,50
2016-06-06T15:28:34.937Z,50
2016-06-06T15:29:41.065Z,50
2016-06-06T15:30:34.975Z,50
2016-06-06T15:31:35.070Z,50
2016-06-06T15:32:35.105Z,50
2016-06-06T15:33:35.138Z,50
2016-06-06T15:34:35.189Z,45
2016-06-06T15:35:35.159Z,45
2016-06-06T15:36:35.256Z,45
2016-06-06T15:37:35.305Z,45
2016-06-06T15:38:35.355Z,45
2016-06-06T15:39:35.467Z,45
2016-06-06T15:40:35.438Z,45
2016-06-06T15:41:35.504Z,45
2016-06-06T15:42:35.537Z,45
2016-06-06T15:43:35.571Z,45
2016-06-06T15:44:36.027Z,45
2016-06-06T15:45:36.530Z,45
2016-06-06T15:46:35.689Z,40
2016-06-06T15:47:35.723Z,40
2016-06-06T15:48:35.788Z,40
2016-06-06T15:49:35.807Z,40
2016-06-06T15:50:35.950Z,40
2016-06-06T15:51:35.734Z,40
2016-06-06T15:52:35.971Z,40
2016-06-06T15:53:35.957Z,40
2016-06-06T15:54:36.007Z,40
2016-06-06T15:55:36.057Z,40
2016-06-06T15:56:36.090Z,40
2016-06-06T15:57:36.140Z,40
2016-06-06T15:58:36.175Z,35
2016-06-06T15:59:36.490Z,35
2016-06-06T16:00:36.133Z,35
2016-06-06T16:01:36.151Z,35
2016-06-06T16:02:36.342Z,35
2016-06-06T16:03:36.453Z,35
2016-06-06T16:04:36.503Z,35
2016-06-06T16:05:36.506Z,35
2016-06-06T16:06:36.602Z,35
2016-06-06T16:07:36.542Z,35
2016-06-06T16:08:36.639Z,35
2016-06-06T16:09:36.517Z,35
2016-06-06T16:10:36.660Z,35
2016-06-06T16:11:36.710Z,35
2016-06-06T16:12:36.744Z,35
2016-06-06T16:13:36.794Z,35
2016-06-06T16:14:37.218Z,35
2016-06-06T16:15:37.033Z,30
2016-06-06T16:16:36.754Z,30
2016-06-06T16:17:36.976Z,30
2016-06-06T16:18:37.150Z,30
2016-06-06T16:19:37.216Z,30
2016-06-06T16:20:37.171Z,30
2016-06-06T16:21:37.112Z,30
2016-06-06T16:22:37.224Z,30
2016-06-06T16:23:37.195Z,30
2016-06-06T16:24:37.245Z,30
2016-06-06T16:25:37.279Z,30
2016-06-06T16:26:37.265Z,30
2016-06-06T16:27:37.346Z,30
2016-06-06T16:28:37.381Z,30
2016-06-06T16:29:37.445Z,30
2016-06-06T16:30:37.354Z,30
2016-06-06T16:31:37.357Z,25
2016-06-06T16:32:37.641Z,25
2016-06-06T16:33:37.456Z,25
2016-06-06T16:34:37.647Z,25
2016-06-06T16:35:37.665Z,25
2016-06-06T16:36:37.714Z,25
2016-06-06T16:37:37.764Z,25
2016-06-06T16:38:37.814Z,25
2016-06-06T16:39:37.691Z,25
2016-06-06T16:40:37.897Z,25
2016-06-06T16:41:37.916Z,25
2016-06-06T16:42:37.954Z,25
2016-06-06T16:43:37.852Z,25
2016-06-06T16:44:38.125Z,25
2016-06-06T16:45:38.055Z,25
2016-06-06T16:46:38.141Z,25
2016-06-06T16:47:38.193Z,25
2016-06-06T16:48:38.072Z,25
2016-06-06T16:49:38.278Z,25
2016-06-06T16:50:38.361Z,25
2016-06-06T16:51:38.365Z,25
2016-06-06T16:52:38.385Z,25
2016-06-06T16:53:38.278Z,20
2016-06-06T16:54:38.470Z,20
2016-06-06T16:55:38.582Z,20
2016-06-06T16:56:38.555Z,20
2016-06-06T16:57:38.621Z,20
2016-06-06T16:58:38.623Z,20
2016-06-06T16:59:39.220Z,20
2016-06-06T17:00:38.973Z,20
2016-06-06T17:01:38.758Z,20
2016-06-06T17:02:38.807Z,15
2016-06-06T17:03:38.934Z,15
2016-06-06T17:04:38.875Z,15
2016-06-06T17:05:39.033Z,15
2016-06-06T17:06:39.131Z,10
2016-06-06T17:07:39.039Z,10
2016-06-06T17:08:39.136Z,10
2016-06-06T17:09:39.092Z,10
2016-06-06T17:10:39.110Z,10
2016-06-06T17:11:39.175Z,10
2016-06-06T17:12:39.194Z,10
2016-06-06T17:13:39.227Z,10
2016-06-06T17:14:40.089Z,10
2016-06-06T17:15:39.999Z,5
2016-06-06T17:16:39.360Z,5
2016-06-06T17:17:39.394Z,5
2016-06-06T17:18:39.429Z,5
2016-06-06T17:19:39.306Z,5
2016-06-06T17:20:39.355Z,5
2016-06-06T17:21:39.390Z,5
2016-06-06T17:22:39.596Z,5
2016-06-06T17:23:39.629Z,5
2016-06-06T17:24:39.663Z,5
2016-06-06T17:25:39.712Z,5
2016-06-06T17:26:39.746Z,5
2016-06-06T17:27:39.781Z,5
2016-06-06T17:28:39.845Z,5
2016-06-06T17:29:39.880Z,5
2016-06-06T17:30:39.757Z,5
2016-06-06T17:31:39.775Z,5
2016-06-06T17:32:39.998Z,5
2016-06-06T17:33:40.031Z,5
2016-06-06T17:34:40.064Z,5
2016-06-06T17:35:40.114Z,5
2016-06-06T17:36:39.977Z,5
2016-06-06T17:37:40.197Z,5
2016-06-06T17:38:40.201Z,5
2016-06-06T17:39:40.094Z,5
2016-06-06T17:40:40.299Z,5
2016-06-06T17:41:40.178Z,5
2016-06-06T17:42:40.383Z,5
2016-06-06T17:43:40.402Z,5
2016-06-06T17:44:40.466Z,5
2016-06-06T17:45:44.314Z,5
2016-06-06T17:46:40.519Z,5
2016-06-06T17:47:40.552Z,5
2016-06-06T17:48:40.603Z,5
2016-06-06T17:49:40.637Z,5
2016-06-06T17:50:40.685Z,5
2016-06-06T17:51:40.798Z,5
2016-06-06T17:52:40.754Z,5
2016-06-06T17:53:40.788Z,5
2016-06-06T17:54:40.821Z,5
2016-06-06T17:55:40.856Z,5
2016-06-06T17:56:40.890Z,5
2016-06-06T17:57:40.954Z,5
2016-06-06T17:58:40.973Z,5
2016-06-06T17:59:41.179Z,5
2016-06-06T18:00:41.667Z,5
2016-06-06T18:01:41.090Z,5
2016-06-06T18:02:41.125Z,5
2016-06-06T18:03:41.253Z,5
2016-06-06T18:04:41.270Z,5
2016-06-06T18:05:41.086Z,5
2016-06-06T18:06:41.276Z,5
2016-06-06T18:07:41.310Z,5
2016-06-06T18:08:41.359Z,5
2016-06-06T18:09:41.378Z,5
2016-06-06T18:10:41.427Z,5
2016-06-06T18:11:41.477Z,5
2016-06-06T18:12:41.355Z,5
2016-06-06T18:13:41.545Z,5
2016-06-06T18:14:42.516Z,5
2016-06-06T18:15:41.863Z,5
2016-06-06T18:16:41.663Z,0
2016-06-06T18:17:41.555Z,0
2016-06-06T18:18:41.730Z,0
2016-06-06T18:19:41.780Z,0
2016-06-06T18:20:41.861Z,0
2016-06-06T18:21:41.832Z,0
2016-06-06T18:22:42.007Z,0
2016-06-06T18:23:41.915Z,0
2016-06-06T18:24:41.982Z,0
2016-06-06T18:25:42.076Z,0
2016-06-06T18:26:41.861Z,0
2016-06-06T18:27:42.114Z,0
2016-06-06T18:28:42.101Z,0
2016-06-06T18:29:42.228Z,0
2016-06-06T18:30:42.435Z,0
2016-06-06T18:31:42.062Z,0
2016-06-06T18:32:42.111Z,0
2016-06-06T18:33:42.270Z,0
2016-06-06T18:34:42.320Z,0
2016-06-06T18:35:42.354Z,0
2016-06-06T18:36:42.388Z,0
2016-06-06T18:37:42.531Z,0
2016-06-06T18:38:42.472Z,0
2016-06-06T18:39:42.692Z,0
2016-06-06T18:40:42.633Z,0
2016-06-06T18:41:42.573Z,0
2016-06-06T18:42:42.622Z,0
2016-06-06T18:43:42.861Z,0
2016-06-06T18:44:43.316Z,0
2016-06-06T18:45:43.147Z,0
2016-06-06T18:46:42.758Z,0
2016-06-06T18:47:42.793Z,0
2016-06-06T18:48:42.842Z,0
2016-06-06T18:49:42.876Z,0
2016-06-06T18:50:42.910Z,0
2016-06-06T18:51:42.944Z,0
2016-06-06T18:52:42.978Z,0
2016-06-06T18:53:43.059Z,0
2016-06-06T18:54:43.045Z,0
2016-06-06T18:55:43.096Z,0
2016-06-06T18:56:43.129Z,0
2016-06-06T18:57:43.163Z,0
2016-06-06T18:58:43.182Z,0
2016-06-06T18:59:43.918Z,0
2016-06-06T19:00:43.686Z,0
2016-06-06T19:01:43.314Z,0
2016-06-06T19:02:43.333Z,0
2016-06-06T19:03:43.382Z,0
2016-06-06T19:04:43.416Z,0
2016-06-06T19:05:43.450Z,0
2016-06-06T19:06:43.531Z,0
2016-06-06T19:07:43.534Z,0
2016-06-06T19:08:43.552Z,0
2016-06-06T19:09:43.617Z,0
2016-06-06T19:10:43.620Z,0
2016-06-06T19:11:43.545Z,0
2016-06-06T19:12:43.703Z,0
2016-06-06T19:13:43.784Z,0
2016-06-06T19:14:43.849Z,0
2016-06-06T19:15:43.837Z,0
2016-06-06T19:16:45.292Z,0
2016-06-06T19:17:43.733Z,0
2016-06-06T19:18:43.907Z,0
2016-06-06T19:19:43.785Z,0
2016-06-06T19:20:43.975Z,0
2016-06-06T19:21:44.010Z,0
2016-06-06T19:22:44.105Z,0
2016-06-06T19:23:44.093Z,0
2016-06-06T19:24:44.126Z,0
2016-06-06T19:25:44.145Z,0
2016-06-06T19:26:44.194Z,0
2016-06-06T19:27:44.228Z,0
2016-06-06T19:28:44.246Z,0
2016-06-06T19:29:44.312Z,0
2016-06-06T19:30:44.330Z,0
2016-06-06T19:31:44.379Z,0
2016-06-06T19:32:47.398Z,0
2016-06-06T19:33:44.448Z,0
2016-06-06T19:34:45.028Z,0
2016-06-06T19:35:45.859Z,0
2016-06-06T19:36:44.550Z,0
2016-06-06T19:37:44.584Z,0
2016-06-06T19:38:44.601Z,0
2016-06-06T19:39:44.745Z,0
2016-06-06T19:40:44.764Z,0
2016-06-06T19:41:44.813Z,0
2016-06-06T19:42:44.800Z,0
2016-06-06T19:43:44.912Z,0
2016-06-06T19:50:28.459Z,0
2016-06-06T19:50:41.493Z,0
2016-06-06T19:51:41.324Z,0
2016-06-06T19:52:41.090Z,0
2016-06-06T19:53:41.124Z,0
2016-06-06T19:54:41.363Z,0
2016-06-06T19:55:41.397Z,0
2016-06-06T19:56:41.382Z,0
2016-06-06T19:57:41.527Z,0
2016-06-06T19:58:41.577Z,0
2016-06-06T19:59:41.579Z,0
2016-06-06T20:00:41.754Z,0
2016-06-06T20:01:41.632Z,0
2016-06-06T20:02:41.650Z,0
2016-06-06T20:03:41.619Z,0
2016-06-06T20:04:41.637Z,0
2016-06-06T20:05:43.627Z,0
2016-06-06T20:06:41.720Z,0
2016-06-06T20:07:41.756Z,0
2016-06-06T20:08:41.789Z,0
2016-06-06T20:09:41.823Z,0
2016-06-06T20:10:41.856Z,0
2016-06-06T20:11:41.891Z,0
2016-06-06T20:12:41.909Z,0
2016-06-06T20:13:41.989Z,0
2016-06-06T20:14:42.070Z,0
2016-06-06T20:15:42.011Z,0
2016-06-06T20:16:42.060Z,0
2016-06-06T20:17:42.094Z,0
2016-06-06T20:18:42.113Z,0
2016-06-06T20:19:42.758Z,0
2016-06-06T20:20:42.778Z,0
2016-06-06T20:21:42.231Z,0
2016-06-06T20:22:42.358Z,0
2016-06-06T20:23:42.282Z,0
2016-06-06T20:24:42.426Z,0
2016-06-06T20:25:42.319Z,0
2016-06-06T20:26:42.306Z,0
2016-06-06T20:27:42.309Z,0
2016-06-06T20:28:42.483Z,0
2016-06-06T20:29:42.486Z,0
2016-06-06T20:30:42.613Z,0
2016-06-06T20:31:42.632Z,0
2016-06-06T20:32:42.651Z,0
2016-06-06T20:33:42.654Z,0
2016-06-06T20:34:43.000Z,0
2016-06-06T20:35:42.596Z,0
2016-06-06T20:36:42.723Z,0
2016-06-06T20:37:42.757Z,0
2016-06-06T20:38:42.776Z,0
2016-06-06T20:39:45.844Z,0
2016-06-06T20:40:42.859Z,0
2016-06-06T20:41:42.893Z,0
2016-06-06T20:42:43.193Z,0
2016-06-06T20:43:43.008Z,0
2016-06-06T20:44:42.886Z,0
2016-06-06T20:45:43.216Z,0
2016-06-06T20:46:43.235Z,0
2016-06-06T20:47:43.472Z,0
2016-06-06T20:48:43.241Z,0
2016-06-06T20:49:43.746Z,0
2016-06-06T20:50:44.388Z,0
2016-06-06T20:51:43.138Z,0
2016-06-06T20:52:43.172Z,0
2016-06-06T20:53:43.379Z,0
2016-06-06T20:54:43.428Z,0
2016-06-06T20:55:43.415Z,0
2016-06-06T20:56:43.433Z,0
2016-06-06T20:57:43.515Z,0
2016-06-06T20:58:43.471Z,0
2016-06-06T20:59:43.473Z,0
2016-06-06T21:00:43.507Z,0
2016-06-06T21:01:43.541Z,0
2016-06-06T21:02:43.575Z,0
2016-06-06T21:03:43.625Z,0
2016-06-06T21:04:44.126Z,0
2016-06-06T21:05:44.145Z,0
2016-06-06T21:06:43.946Z,0
2016-06-06T21:07:43.573Z,0
2016-06-06T21:08:43.622Z,0
2016-06-06T21:09:43.797Z,0
2016-06-06T21:10:43.831Z,0
2016-06-06T21:11:43.896Z,0
2016-06-06T21:12:43.898Z,0
2016-06-06T21:13:43.933Z,0
2016-06-06T21:14:43.967Z,0
2016-06-06T21:15:43.985Z,0
2016-06-06T21:16:44.034Z,0
2016-06-06T21:17:44.069Z,0
2016-06-06T21:18:44.117Z,0
2016-06-06T21:19:44.606Z,0
2016-06-06T21:20:44.013Z,0
2016-06-06T21:21:44.188Z,0
2016-06-06T21:22:44.222Z,0
2016-06-06T21:23:44.241Z,0
2016-06-06T21:24:44.399Z,0
2016-06-06T21:25:44.449Z,0
2016-06-06T21:26:47.142Z,0
2016-06-06T21:27:44.486Z,0
2016-06-06T21:28:44.504Z,0
2016-06-06T21:29:44.522Z,0
2016-06-06T21:30:44.369Z,0
2016-06-06T21:31:44.527Z,0
2016-06-06T21:32:44.546Z,0
2016-06-06T21:33:44.657Z,0
2016-06-06T21:34:44.660Z,0
2016-06-06T21:35:45.398Z,0
2016-06-06T21:36:44.713Z,0
2016-06-06T21:37:44.715Z,0
2016-06-06T21:38:44.968Z,0
2016-06-06T21:39:45.740Z,0
2016-06-06T21:40:44.787Z,0
2016-06-06T21:41:44.820Z,0
2016-06-06T21:42:44.948Z,0
2016-06-06T21:43:44.950Z,0
2016-06-06T21:44:45.047Z,0
2016-06-06T21:45:45.175Z,0
2016-06-06T21:46:45.177Z,0
2016-06-06T21:47:45.195Z,0
2016-06-06T21:48:45.198Z,0
2016-06-06T21:49:44.936Z,0
2016-06-06T21:50:45.250Z,0
2016-06-06T21:51:45.253Z,0
2016-06-06T21:52:45.272Z,0
2016-06-06T21:53:45.275Z,0
2016-06-06T21:54:45.277Z,0
2016-06-06T21:55:45.358Z,0
2016-06-06T21:56:45.376Z,0
2016-06-06T21:57:45.238Z,0
2016-06-06T21:58:45.413Z,0
2016-06-06T21:59:45.416Z,0
2016-06-06T22:00:45.418Z,0
2016-06-06T22:01:45.296Z,0
2016-06-06T22:02:45.471Z,0
2016-06-06T22:03:45.505Z,0
2016-06-06T22:04:45.538Z,0
2016-06-06T22:05:45.932Z,0
2016-06-06T22:06:45.621Z,0
2016-06-06T22:07:45.640Z,0
2016-06-06T22:08:45.659Z,0
2016-06-06T22:09:45.693Z,0
2016-06-06T22:10:45.726Z,0
2016-06-06T22:11:45.760Z,0
2016-06-06T22:12:45.810Z,0
2016-06-06T22:13:45.829Z,0
2016-06-06T22:14:45.847Z,0
2016-06-06T22:15:45.568Z,0
2016-06-06T22:16:45.915Z,0
2016-06-06T22:17:45.776Z,0
2016-06-06T22:18:46.466Z,0
2016-06-06T22:19:46.017Z,0
2016-06-06T22:20:45.878Z,0
2016-06-06T22:21:46.069Z,0
2016-06-06T22:22:46.102Z,0
2016-06-06T22:23:46.246Z,0
2016-06-06T22:24:46.249Z,0
2016-06-06T22:25:46.298Z,0
2016-06-06T22:26:46.285Z,0
2016-06-06T22:27:46.303Z,0
2016-06-06T22:28:46.305Z,0
2016-06-06T22:29:46.324Z,0
2016-06-06T22:30:46.452Z,0
2016-06-06T22:31:46.299Z,0
2016-06-06T22:32:46.333Z,0
2016-06-06T22:33:47.194Z,0
2016-06-06T22:34:46.510Z,0
2016-06-06T22:35:46.529Z,0
2016-06-06T22:36:46.562Z,0
2016-06-06T22:37:46.580Z,0
2016-06-06T22:38:46.599Z,0
2016-06-06T22:39:46.617Z,0
2016-06-06T22:40:46.651Z,0
2016-06-06T22:41:46.670Z,0
2016-06-06T22:42:46.703Z,0
2016-06-06T22:43:46.753Z,0
2016-06-06T22:44:46.770Z,0
2016-06-06T22:45:46.805Z,0
2016-06-06T22:46:46.823Z,0
2016-06-06T22:47:46.857Z,0
2016-06-06T22:48:46.876Z,0
2016-06-06T22:49:46.925Z,0
2016-06-06T22:50:47.193Z,0
2016-06-06T22:51:46.977Z,0
2016-06-06T22:52:47.011Z,0
2016-06-06T22:53:46.795Z,0
2016-06-06T22:54:47.095Z,0
2016-06-06T22:55:47.097Z,0
2016-06-06T22:56:47.256Z,0
2016-06-06T22:57:47.258Z,0
2016-06-06T22:58:47.278Z,0
2016-06-06T22:59:47.280Z,0
2016-06-06T23:00:47.298Z,0
2016-06-06T23:01:47.301Z,0
2016-06-06T23:02:47.304Z,0
2016-06-06T23:03:47.416Z,0
2016-06-06T23:04:47.278Z,0
2016-06-06T23:05:47.484Z,0
2016-06-06T23:06:47.424Z,0
2016-06-06T23:07:47.458Z,0
2016-06-06T23:08:47.493Z,0
2016-06-06T23:09:47.354Z,0
2016-06-06T23:10:47.543Z,0
2016-06-06T23:11:47.578Z,0
2016-06-06T23:12:47.612Z,0